Weather at Manyoni North Airport

Public forecast

Using degrees Celsius for public forecast. Weather courtesy of forecast.io.

Closest aviation weather report (METAR) to Manyoni North Airport

Closest report is Dodoma Airport, 60.9 nm (112.8 km) ESE. Retrieved 2020/11/23 21:00 UTC (26 minutes ago):

HTDO 232100Z 09010KT 9999 FEW022 23/18 Q1017 NOSIG

Closest aviation forecast (TAF) to Manyoni North Airport

Forecast is more than 12 hours old.

Closest forecast is Dodoma Airport, 60.9 nm (112.8 km) ESE. Retrieved 2020/11/20 06:18 UTC (4 days ago):

TAF HTDO 200500Z 2006/2106 09010KT 9999 SCT024